createdAt,value
2022-08-17T00:00:34.845Z,96.98
2022-08-17T00:01:27.467Z,97.08
2022-08-17T00:02:27.118Z,97.18
2022-08-17T00:03:25.957Z,97.28
2022-08-17T00:04:25.959Z,97.08
2022-08-17T00:05:25.936Z,97.33
2022-08-17T00:06:25.945Z,97.73
2022-08-17T00:07:25.907Z,97.99
2022-08-17T00:08:25.895Z,97.93
2022-08-17T00:09:25.892Z,97.83
2022-08-17T00:10:25.876Z,98.13
2022-08-17T00:11:25.878Z,98.24
2022-08-17T00:12:42.703Z,99.30
2022-08-17T00:13:26.838Z,99.30
2022-08-17T00:14:25.818Z,99.30
2022-08-17T00:15:25.796Z,99.24
2022-08-17T00:16:56.185Z,99.90
2022-08-17T00:17:26.776Z,99.44
2022-08-17T00:19:01.245Z,99.30
2022-08-17T00:19:26.746Z,99.14
2022-08-17T00:20:29.209Z,99.04
2022-08-17T00:21:26.737Z,99.04
2022-08-17T00:22:34.815Z,98.74
2022-08-17T00:23:26.694Z,98.84
2022-08-17T00:24:25.683Z,98.64
2022-08-17T00:25:25.666Z,98.74
2022-08-17T00:26:43.190Z,98.54
2022-08-17T00:27:26.635Z,98.94
2022-08-17T00:28:25.633Z,98.54
2022-08-17T00:29:25.605Z,99.04
2022-08-17T00:30:25.606Z,98.94
2022-08-17T00:31:25.598Z,99.14
2022-08-17T00:33:14.072Z,98.94
2022-08-17T00:33:26.989Z,99.14
2022-08-17T00:34:25.561Z,99.54
2022-08-17T00:35:25.527Z,99.34
2022-08-17T00:36:25.540Z,99.04
2022-08-17T00:37:25.505Z,99.34
2022-08-17T00:38:25.495Z,99.24
2022-08-17T00:39:25.532Z,99.65
2022-08-17T00:40:25.466Z,99.54
2022-08-17T00:41:25.467Z,99.34
2022-08-17T00:42:30.465Z,99.24
2022-08-17T00:43:26.428Z,99.04
2022-08-17T00:44:25.415Z,98.79
2022-08-17T00:45:26.396Z,98.68
2022-08-17T00:46:25.404Z,98.68
2022-08-17T00:47:25.366Z,98.58
2022-08-17T00:48:30.123Z,98.48
2022-08-17T00:49:26.349Z,98.68
2022-08-17T00:50:25.337Z,98.48
2022-08-17T00:51:25.776Z,98.58
2022-08-17T00:52:25.308Z,98.48
2022-08-17T00:53:25.286Z,99.08
2022-08-17T00:54:25.296Z,99.99
2022-08-17T00:55:25.271Z,99.99
2022-08-17T00:56:25.273Z,99.99
2022-08-17T00:57:25.246Z,99.99
2022-08-17T00:58:30.381Z,99.99
2022-08-17T00:59:26.216Z,99.99
2022-08-17T01:00:25.210Z,99.79
2022-08-17T01:01:25.253Z,99.49
2022-08-17T01:02:25.176Z,99.19
2022-08-17T01:03:25.164Z,99.19
2022-08-17T01:04:25.146Z,99.08
2022-08-17T01:05:25.416Z,98.99
2022-08-17T01:06:25.124Z,98.83
2022-08-17T01:07:25.128Z,98.73
2022-08-17T01:08:25.095Z,98.63
2022-08-17T01:09:25.075Z,98.43
2022-08-17T01:10:59.551Z,98.33
2022-08-17T01:11:26.078Z,98.83
2022-08-17T01:12:25.057Z,99.64
2022-08-17T01:13:25.026Z,99.64
2022-08-17T01:14:25.015Z,99.33
2022-08-17T01:15:24.995Z,99.33
2022-08-17T01:16:25.001Z,99.33
2022-08-17T01:17:24.986Z,99.24
2022-08-17T01:18:24.970Z,99.24
2022-08-17T01:19:24.948Z,98.93
2022-08-17T01:20:24.935Z,98.83
2022-08-17T01:21:24.931Z,98.73
2022-08-17T01:22:24.925Z,99.08
2022-08-17T01:23:24.886Z,99.18
2022-08-17T01:24:24.884Z,99.28
2022-08-17T01:25:24.865Z,99.08
2022-08-17T01:26:24.858Z,99.58
2022-08-17T01:27:24.856Z,99.58
2022-08-17T01:28:52.539Z,99.68
2022-08-17T01:29:25.816Z,99.88
2022-08-17T01:30:57.718Z,99.88
2022-08-17T01:31:25.795Z,99.88
2022-08-17T01:32:24.785Z,99.79
2022-08-17T01:33:24.765Z,99.88
2022-08-17T01:34:24.750Z,99.88
2022-08-17T01:35:25.736Z,99.79
2022-08-17T01:36:24.719Z,99.58
2022-08-17T01:37:24.727Z,99.58
2022-08-17T01:38:27.060Z,99.38
2022-08-17T01:39:24.721Z,99.58
2022-08-17T01:40:24.665Z,99.58
2022-08-17T01:41:24.654Z,99.99
2022-08-17T01:42:24.655Z,99.99
2022-08-17T01:43:24.626Z,99.99
2022-08-17T01:44:24.615Z,99.79
2022-08-17T01:45:24.609Z,99.99
2022-08-17T01:46:24.585Z,99.99
2022-08-17T01:47:24.595Z,99.99
2022-08-17T01:48:24.558Z,99.68
2022-08-17T01:49:24.555Z,99.79
2022-08-17T01:50:24.555Z,99.48
2022-08-17T01:51:24.530Z,99.38
2022-08-17T01:52:24.523Z,99.43
2022-08-17T01:53:24.497Z,99.33
2022-08-17T01:54:24.476Z,99.63
2022-08-17T01:55:27.352Z,99.53
2022-08-17T01:56:24.456Z,99.43
2022-08-17T01:57:24.465Z,99.43
2022-08-17T01:58:24.426Z,99.43
2022-08-17T01:59:24.415Z,99.22
2022-08-17T02:00:24.405Z,99.13
2022-08-17T02:01:24.493Z,99.13
2022-08-17T02:02:31.029Z,99.13
2022-08-17T02:03:25.365Z,99.22
2022-08-17T02:04:24.358Z,99.33
2022-08-17T02:05:24.355Z,99.18
2022-08-17T02:06:27.627Z,99.18
2022-08-17T02:07:26.112Z,99.68
2022-08-17T02:08:38.998Z,99.68
2022-08-17T02:09:25.789Z,99.48
2022-08-17T02:10:24.277Z,99.58
2022-08-17T02:11:25.264Z,99.58
2022-08-17T02:12:39.279Z,99.48
2022-08-17T02:13:25.235Z,99.48
2022-08-17T02:14:24.215Z,99.38
2022-08-17T02:15:24.205Z,99.38
2022-08-17T02:16:24.195Z,99.32
2022-08-17T02:17:24.203Z,99.22
2022-08-17T02:18:24.163Z,99.32
2022-08-17T02:19:24.159Z,99.52
2022-08-17T02:20:36.424Z,99.73
2022-08-17T02:21:25.125Z,99.62
2022-08-17T02:22:24.126Z,99.73
2022-08-17T02:23:24.104Z,99.83
2022-08-17T02:24:58.485Z,99.99
2022-08-17T02:25:25.072Z,99.99
2022-08-17T02:26:26.615Z,99.99
2022-08-17T02:27:24.056Z,99.99
2022-08-17T02:28:24.024Z,99.93
2022-08-17T02:29:24.024Z,99.99
2022-08-17T02:30:59.370Z,99.99
2022-08-17T02:31:24.997Z,99.99
2022-08-17T02:32:27.176Z,99.99
2022-08-17T02:33:24.948Z,99.99
2022-08-17T02:34:24.945Z,99.99
2022-08-17T02:35:23.935Z,99.99
2022-08-17T02:36:27.315Z,99.99
2022-08-17T02:37:23.936Z,99.99
2022-08-17T02:38:23.895Z,99.99
2022-08-17T02:39:24.054Z,99.99
2022-08-17T02:40:36.389Z,99.99
2022-08-17T02:41:24.893Z,99.99
2022-08-17T02:42:23.855Z,99.99
2022-08-17T02:43:23.835Z,99.99
2022-08-17T02:44:35.371Z,99.99
2022-08-17T02:45:24.805Z,99.99
2022-08-17T02:46:23.795Z,99.99
2022-08-17T02:47:23.810Z,99.99
2022-08-17T02:48:31.226Z,99.99
2022-08-17T02:49:24.755Z,99.99
2022-08-17T02:50:23.735Z,99.98
2022-08-17T02:51:23.745Z,99.99
2022-08-17T02:53:01.423Z,99.99
2022-08-17T02:53:24.694Z,99.99
2022-08-17T02:54:40.235Z,99.99
2022-08-17T02:55:24.674Z,99.99
2022-08-17T02:56:23.654Z,99.99
2022-08-17T02:57:23.673Z,99.99
2022-08-17T02:58:35.180Z,99.99
2022-08-17T02:59:24.615Z,99.99
2022-08-17T03:00:23.604Z,99.99
2022-08-17T03:01:23.648Z,99.99
2022-08-17T03:02:23.594Z,99.99
2022-08-17T03:03:23.576Z,99.99
2022-08-17T03:04:23.554Z,99.99
2022-08-17T03:05:23.544Z,99.99
2022-08-17T03:06:23.534Z,99.99
2022-08-17T03:07:23.534Z,99.99
2022-08-17T03:08:23.573Z,99.99
2022-08-17T03:09:23.493Z,99.99
2022-08-17T03:10:23.464Z,99.99
2022-08-17T03:11:23.486Z,99.99
2022-08-17T03:12:23.475Z,99.99
2022-08-17T03:13:23.439Z,99.99
2022-08-17T03:14:26.120Z,99.99
2022-08-17T03:15:23.424Z,99.99
2022-08-17T03:16:23.405Z,99.99
2022-08-17T03:17:23.404Z,99.99
2022-08-17T03:18:25.459Z,99.99
2022-08-17T03:19:23.355Z,99.99
2022-08-17T03:20:23.334Z,99.99
2022-08-17T03:21:23.324Z,99.99
2022-08-17T03:22:36.971Z,99.99
2022-08-17T03:23:25.598Z,99.99
2022-08-17T03:24:28.605Z,99.99
2022-08-17T03:25:24.273Z,99.99
2022-08-17T03:26:23.288Z,99.99
2022-08-17T03:27:23.269Z,99.99
2022-08-17T03:28:23.239Z,99.99
2022-08-17T03:29:23.224Z,99.99
2022-08-17T03:30:23.205Z,99.99
2022-08-17T03:31:23.196Z,99.99
2022-08-17T03:32:23.200Z,99.99
2022-08-17T03:33:23.176Z,99.99
2022-08-17T03:34:23.155Z,99.99
2022-08-17T03:35:23.143Z,99.99
2022-08-17T03:36:23.125Z,99.99
2022-08-17T03:37:23.124Z,99.99
2022-08-17T03:38:23.163Z,99.99
2022-08-17T03:39:23.084Z,99.99
2022-08-17T03:40:55.213Z,99.99
2022-08-17T03:41:24.079Z,99.99
2022-08-17T03:42:32.564Z,99.99
2022-08-17T03:43:24.069Z,99.99
2022-08-17T03:44:23.023Z,99.99
2022-08-17T03:45:23.013Z,99.99
2022-08-17T03:46:28.636Z,99.99
2022-08-17T03:47:24.004Z,99.99
2022-08-17T03:48:22.973Z,99.99
2022-08-17T03:49:22.962Z,99.99
2022-08-17T03:50:22.942Z,99.99
2022-08-17T03:51:22.933Z,99.99
2022-08-17T03:52:22.934Z,99.99
2022-08-17T03:53:22.903Z,99.99
2022-08-17T03:54:22.885Z,99.99
2022-08-17T03:55:22.880Z,99.99
2022-08-17T03:56:23.858Z,99.99
2022-08-17T03:57:22.869Z,99.99
2022-08-17T03:58:22.843Z,99.99
2022-08-17T03:59:22.838Z,99.99
2022-08-17T04:00:22.825Z,99.99
2022-08-17T04:01:22.825Z,99.99
2022-08-17T04:02:22.794Z,99.99
2022-08-17T04:03:22.772Z,99.99
2022-08-17T04:04:28.078Z,99.99
2022-08-17T04:05:23.744Z,99.99
2022-08-17T04:06:22.727Z,99.99
2022-08-17T04:07:22.735Z,99.99
2022-08-17T04:08:22.694Z,99.99
2022-08-17T04:09:22.703Z,99.99
2022-08-17T04:10:26.275Z,99.99
2022-08-17T04:11:22.663Z,99.99
2022-08-17T04:12:22.665Z,99.99
2022-08-17T04:13:24.251Z,99.99
2022-08-17T04:14:22.624Z,99.99
2022-08-17T04:15:22.613Z,99.99
2022-08-17T04:16:22.603Z,99.99
2022-08-17T04:17:22.593Z,99.99
2022-08-17T04:18:22.573Z,99.99
2022-08-17T04:19:22.562Z,99.99
2022-08-17T04:20:22.543Z,99.99
2022-08-17T04:21:22.534Z,99.99
2022-08-17T04:22:32.945Z,99.99
2022-08-17T04:23:23.515Z,99.99
2022-08-17T04:24:22.613Z,99.99
2022-08-17T04:25:22.472Z,99.99
2022-08-17T04:26:52.297Z,99.99
2022-08-17T04:27:23.470Z,99.99
2022-08-17T04:28:22.435Z,99.99
2022-08-17T04:29:22.431Z,99.99
2022-08-17T04:30:22.424Z,99.99
2022-08-17T04:31:22.409Z,99.99
2022-08-17T04:32:58.471Z,99.99
2022-08-17T04:33:23.375Z,99.99
2022-08-17T04:34:22.361Z,99.99
2022-08-17T04:35:22.343Z,99.99
2022-08-17T04:36:22.322Z,99.99
2022-08-17T04:37:22.348Z,99.99
2022-08-17T04:38:22.301Z,99.99
2022-08-17T04:39:22.303Z,99.99
2022-08-17T04:40:22.273Z,99.99
2022-08-17T04:41:22.265Z,99.99
2022-08-17T04:42:22.262Z,99.99
2022-08-17T04:43:22.242Z,99.99
2022-08-17T04:44:37.204Z,99.99
2022-08-17T04:45:23.213Z,99.99
2022-08-17T04:46:22.192Z,99.99
2022-08-17T04:47:22.193Z,99.99
2022-08-17T04:48:22.180Z,99.99
2022-08-17T04:49:22.155Z,99.99
2022-08-17T04:50:22.142Z,99.99
2022-08-17T04:51:22.134Z,99.99
2022-08-17T04:52:32.256Z,99.99
2022-08-17T04:53:23.110Z,99.99
2022-08-17T04:54:22.094Z,99.99
2022-08-17T04:55:22.073Z,99.99
2022-08-17T04:56:22.087Z,99.99
2022-08-17T04:57:22.063Z,99.99
2022-08-17T04:58:22.037Z,99.99
2022-08-17T04:59:22.024Z,99.99
2022-08-17T05:00:22.014Z,99.99
2022-08-17T05:01:24.050Z,99.99
2022-08-17T05:02:22.002Z,99.99
2022-08-17T05:03:21.975Z,99.99
2022-08-17T05:04:34.373Z,99.99
2022-08-17T05:05:22.943Z,99.99
2022-08-17T05:06:21.931Z,99.99
2022-08-17T05:07:24.607Z,99.99
2022-08-17T05:08:21.903Z,99.99
2022-08-17T05:09:21.902Z,99.99
2022-08-17T05:10:21.891Z,99.99
2022-08-17T05:11:21.903Z,99.99
2022-08-17T05:12:21.892Z,99.84
2022-08-17T05:13:21.841Z,99.24
2022-08-17T05:14:21.821Z,98.83
2022-08-17T05:15:22.814Z,98.53
2022-08-17T05:16:21.804Z,98.43
2022-08-17T05:17:21.804Z,97.72
2022-08-17T05:18:21.770Z,97.67
2022-08-17T05:19:21.778Z,97.67
2022-08-17T05:20:21.733Z,97.47
2022-08-17T05:21:21.739Z,97.67
2022-08-17T05:22:21.736Z,97.43
2022-08-17T05:23:21.707Z,97.23
2022-08-17T05:24:41.240Z,96.92
2022-08-17T05:25:25.738Z,96.32
2022-08-17T05:26:26.930Z,96.37
2022-08-17T05:27:22.672Z,96.28
2022-08-17T05:28:26.553Z,96.08
2022-08-17T05:29:22.633Z,95.87
2022-08-17T05:30:22.614Z,96.08
2022-08-17T05:31:21.620Z,95.87
2022-08-17T05:32:37.820Z,95.77
2022-08-17T05:33:22.574Z,95.73
2022-08-17T05:34:21.561Z,95.93
2022-08-17T05:35:21.542Z,95.53
2022-08-17T05:36:41.786Z,95.73
2022-08-17T05:37:22.534Z,95.62
2022-08-17T05:38:21.495Z,94.87
2022-08-17T05:39:21.494Z,94.78
2022-08-17T05:40:21.493Z,95.58
2022-08-17T05:41:21.738Z,95.84
2022-08-17T05:42:21.465Z,95.23
2022-08-17T05:43:21.443Z,93.02
2022-08-17T05:44:21.431Z,93.42
2022-08-17T05:45:32.687Z,93.73
2022-08-17T05:46:22.410Z,94.38
2022-08-17T05:47:21.384Z,93.68
2022-08-17T05:48:21.383Z,93.78
2022-08-17T05:49:22.356Z,93.58
2022-08-17T05:50:25.743Z,92.97
2022-08-17T05:51:22.333Z,92.53
2022-08-17T05:52:21.332Z,92.33
2022-08-17T05:53:21.313Z,92.03
2022-08-17T05:54:21.305Z,91.99
2022-08-17T05:55:21.282Z,93.79
2022-08-17T05:56:29.743Z,91.78
2022-08-17T05:57:22.251Z,90.58
2022-08-17T05:58:21.247Z,90.58
2022-08-17T05:59:21.230Z,90.03
2022-08-17T06:00:21.213Z,90.73
2022-08-17T06:01:22.247Z,90.44
2022-08-17T06:02:21.201Z,88.73
2022-08-17T06:03:21.183Z,88.79
2022-08-17T06:04:21.241Z,89.39
2022-08-17T06:05:21.142Z,89.59
2022-08-17T06:06:21.135Z,89.04
2022-08-17T06:07:21.123Z,88.95
2022-08-17T06:08:21.124Z,88.84
2022-08-17T06:09:26.549Z,88.60
2022-08-17T06:10:22.124Z,87.10
2022-08-17T06:11:21.065Z,87.50
2022-08-17T06:12:21.065Z,87.60
2022-08-17T06:13:21.054Z,85.46
2022-08-17T06:14:21.194Z,84.85
2022-08-17T06:15:21.013Z,85.75
2022-08-17T06:16:32.842Z,86.52
2022-08-17T06:17:21.984Z,87.12
2022-08-17T06:18:20.992Z,86.01
2022-08-17T06:19:22.094Z,85.51
2022-08-17T06:20:21.104Z,85.01
2022-08-17T06:21:20.935Z,84.75
2022-08-17T06:22:21.936Z,85.31
2022-08-17T06:23:20.944Z,85.91
2022-08-17T06:24:20.895Z,84.81
2022-08-17T06:25:20.932Z,84.87
2022-08-17T06:26:20.885Z,85.07
2022-08-17T06:27:21.854Z,84.07
2022-08-17T06:28:20.856Z,84.53
2022-08-17T06:29:20.825Z,84.13
2022-08-17T06:30:20.818Z,82.79
2022-08-17T06:31:20.805Z,81.89
2022-08-17T06:32:20.806Z,81.29
2022-08-17T06:33:21.070Z,83.35
2022-08-17T06:34:20.770Z,82.25
2022-08-17T06:35:20.988Z,81.41
2022-08-17T06:36:20.736Z,82.31
2022-08-17T06:37:20.723Z,81.27
2022-08-17T06:38:38.299Z,80.98
2022-08-17T06:39:21.695Z,81.27
2022-08-17T06:40:20.681Z,80.14
2022-08-17T06:41:20.665Z,80.64
2022-08-17T06:43:02.716Z,79.74
2022-08-17T06:43:21.721Z,81.40
2022-08-17T06:44:42.142Z,79.80
2022-08-17T06:45:21.606Z,79.70
2022-08-17T06:46:21.176Z,80.70
2022-08-17T06:47:28.391Z,80.90
2022-08-17T06:48:21.595Z,79.90
2022-08-17T06:49:20.567Z,81.40
2022-08-17T06:50:20.564Z,80.96
2022-08-17T06:51:20.526Z,81.26
2022-08-17T06:52:46.859Z,79.46
2022-08-17T06:53:21.506Z,77.67
2022-08-17T06:54:20.507Z,79.63
2022-08-17T06:55:20.580Z,78.92
2022-08-17T06:56:20.467Z,77.80
2022-08-17T06:57:20.480Z,78.19
2022-08-17T06:58:20.449Z,77.69
2022-08-17T06:59:20.434Z,76.46
2022-08-17T07:00:20.426Z,77.46
2022-08-17T07:01:20.469Z,77.56
2022-08-17T07:02:20.398Z,76.17
2022-08-17T07:03:21.388Z,77.66
2022-08-17T07:04:20.378Z,77.12
2022-08-17T07:05:20.338Z,76.32
2022-08-17T07:06:20.339Z,75.93
2022-08-17T07:07:20.310Z,75.79
2022-08-17T07:08:20.331Z,74.99
2022-08-17T07:09:20.282Z,75.69
2022-08-17T07:10:20.280Z,76.49
2022-08-17T07:11:20.267Z,76.68
2022-08-17T07:12:20.260Z,76.19
2022-08-17T07:13:20.250Z,75.89
2022-08-17T07:14:20.239Z,76.68
2022-08-17T07:15:20.209Z,76.95
2022-08-17T07:16:20.222Z,77.15
2022-08-17T07:17:20.185Z,75.85
2022-08-17T07:18:20.197Z,75.56
2022-08-17T07:19:20.173Z,76.75
2022-08-17T07:20:20.156Z,76.45
2022-08-17T07:21:22.975Z,76.32
2022-08-17T07:22:21.152Z,75.52
2022-08-17T07:23:20.120Z,76.18
2022-08-17T07:24:29.209Z,76.18
2022-08-17T07:25:21.118Z,75.98
2022-08-17T07:26:20.100Z,73.66
2022-08-17T07:27:20.068Z,72.86
2022-08-17T07:28:20.067Z,73.23
2022-08-17T07:29:20.053Z,73.13
2022-08-17T07:30:20.032Z,73.53
2022-08-17T07:31:20.033Z,73.19
2022-08-17T07:32:20.031Z,71.81
2022-08-17T07:33:20.048Z,71.51
2022-08-17T07:34:19.982Z,70.42
2022-08-17T07:35:20.085Z,70.88
2022-08-17T07:36:19.962Z,71.77
2022-08-17T07:37:19.929Z,71.14
2022-08-17T07:38:26.318Z,69.49
2022-08-17T07:39:20.897Z,70.05
2022-08-17T07:40:19.931Z,70.94
2022-08-17T07:41:19.909Z,71.90
2022-08-17T07:42:19.877Z,72.53
2022-08-17T07:43:21.904Z,71.24
2022-08-17T07:44:19.853Z,69.56
2022-08-17T07:45:19.806Z,69.92
2022-08-17T07:46:19.840Z,70.21
2022-08-17T07:47:19.786Z,69.82
2022-08-17T07:48:19.786Z,69.39
2022-08-17T07:49:19.791Z,69.49
2022-08-17T07:50:23.923Z,68.76
2022-08-17T07:51:20.725Z,68.17
2022-08-17T07:52:48.379Z,68.83
2022-08-17T07:53:20.714Z,69.32
2022-08-17T07:54:19.697Z,66.06
2022-08-17T07:55:19.685Z,66.65
2022-08-17T07:56:19.695Z,66.65
2022-08-17T07:57:19.667Z,65.93
2022-08-17T07:58:19.646Z,68.30
2022-08-17T07:59:23.175Z,66.72
2022-08-17T08:00:19.627Z,66.62
2022-08-17T08:01:20.642Z,66.52
2022-08-17T08:02:19.640Z,67.44
2022-08-17T08:03:19.596Z,68.04
2022-08-17T08:04:25.838Z,67.35
2022-08-17T08:05:48.563Z,67.05
2022-08-17T08:06:20.565Z,67.21
2022-08-17T08:07:19.519Z,68.79
2022-08-17T08:08:19.537Z,66.39
2022-08-17T08:09:19.491Z,65.80
2022-08-17T08:10:19.550Z,65.01
2022-08-17T08:11:19.484Z,64.42
2022-08-17T08:12:19.459Z,66.09
2022-08-17T08:13:19.462Z,64.81
2022-08-17T08:14:19.429Z,64.22
2022-08-17T08:15:19.458Z,65.20
2022-08-17T08:16:19.409Z,66.39
2022-08-17T08:17:19.388Z,66.49
2022-08-17T08:18:19.388Z,67.94
2022-08-17T08:19:21.174Z,67.44
2022-08-17T08:20:51.165Z,65.37
2022-08-17T08:21:20.339Z,65.77
2022-08-17T08:22:19.351Z,63.92
2022-08-17T08:23:19.329Z,64.61
2022-08-17T08:24:19.298Z,65.20
2022-08-17T08:25:19.280Z,65.41
2022-08-17T08:26:19.270Z,65.41
2022-08-17T08:27:19.271Z,65.11
2022-08-17T08:28:19.264Z,64.51
2022-08-17T08:29:19.237Z,66.19
2022-08-17T08:30:19.220Z,63.89
2022-08-17T08:31:19.219Z,64.28
2022-08-17T08:32:19.210Z,64.78
2022-08-17T08:33:19.212Z,65.93
2022-08-17T08:34:44.621Z,65.14
2022-08-17T08:35:20.159Z,67.32
2022-08-17T08:37:14.243Z,63.37
2022-08-17T08:37:30.291Z,63.40
2022-08-17T08:38:20.151Z,64.09
2022-08-17T08:39:19.113Z,64.78
2022-08-17T08:40:19.117Z,65.57
2022-08-17T08:41:19.093Z,63.46
2022-08-17T08:42:19.074Z,65.44
2022-08-17T08:43:19.096Z,64.72
2022-08-17T08:44:19.062Z,61.04
2022-08-17T08:45:19.053Z,60.44
2022-08-17T08:46:19.840Z,61.43
2022-08-17T08:47:19.003Z,61.43
2022-08-17T08:48:45.929Z,61.16
2022-08-17T08:49:29.694Z,62.02
2022-08-17T08:50:34.127Z,60.71
2022-08-17T08:51:19.951Z,59.80
2022-08-17T08:52:18.945Z,62.13
2022-08-17T08:53:18.940Z,59.84
2022-08-17T08:54:22.334Z,58.62
2022-08-17T08:55:19.915Z,58.30
2022-08-17T08:56:18.885Z,58.01
2022-08-17T08:57:25.518Z,55.35
2022-08-17T08:58:32.165Z,55.82
2022-08-17T08:59:19.844Z,56.41
2022-08-17T09:00:18.891Z,54.25
2022-08-17T09:01:18.851Z,55.35
2022-08-17T09:02:18.816Z,55.82
2022-08-17T09:03:18.816Z,55.62
2022-08-17T09:04:24.649Z,52.97
2022-08-17T09:05:19.774Z,52.58
2022-08-17T09:06:33.256Z,53.75
2022-08-17T09:07:19.745Z,53.78
2022-08-17T09:08:18.757Z,53.09
2022-08-17T09:09:18.725Z,54.64
2022-08-17T09:10:18.773Z,53.56
2022-08-17T09:11:18.696Z,55.23
2022-08-17T09:12:18.707Z,50.98
2022-08-17T09:13:18.817Z,51.89
2022-08-17T09:14:22.096Z,51.57
2022-08-17T09:15:19.656Z,50.49
2022-08-17T09:16:18.628Z,51.86
2022-08-17T09:17:18.638Z,51.37
2022-08-17T09:19:01.516Z,51.67
2022-08-17T09:19:19.593Z,51.67
2022-08-17T09:20:27.982Z,52.42
2022-08-17T09:21:19.566Z,54.00
2022-08-17T09:22:18.643Z,51.52
2022-08-17T09:23:18.549Z,51.81
2022-08-17T09:24:20.806Z,52.08
2022-08-17T09:25:18.540Z,52.08
2022-08-17T09:26:18.508Z,51.10
2022-08-17T09:27:18.499Z,51.59
2022-08-17T09:28:18.499Z,53.45
2022-08-17T09:29:18.463Z,51.49
2022-08-17T09:30:18.463Z,49.92
2022-08-17T09:31:18.440Z,52.67
2022-08-17T09:32:18.517Z,52.18
2022-08-17T09:33:18.428Z,50.81
2022-08-17T09:34:18.409Z,49.95
2022-08-17T09:35:18.382Z,51.59
2022-08-17T09:36:18.381Z,49.41
2022-08-17T09:37:18.365Z,50.76
2022-08-17T09:38:18.481Z,48.30
2022-08-17T09:39:18.331Z,48.50
2022-08-17T09:40:18.462Z,48.38
2022-08-17T09:41:18.309Z,47.99
2022-08-17T09:42:18.361Z,46.64
2022-08-17T09:43:18.293Z,48.50
2022-08-17T09:44:23.199Z,47.89
2022-08-17T09:45:19.269Z,47.01
2022-08-17T09:46:18.277Z,48.50
2022-08-17T09:47:18.256Z,47.13
2022-08-17T09:48:18.384Z,48.03
2022-08-17T09:49:20.708Z,49.11
2022-08-17T09:50:19.193Z,50.29
2022-08-17T09:51:19.182Z,47.35
2022-08-17T09:52:18.285Z,49.29
2022-08-17T09:53:18.163Z,47.25
2022-08-17T09:54:38.065Z,48.43
2022-08-17T09:55:19.126Z,50.17
2022-08-17T09:56:18.123Z,49.19
2022-08-17T09:57:29.728Z,50.83
2022-08-17T09:58:19.105Z,47.81
2022-08-17T09:59:18.076Z,46.13
2022-08-17T10:00:18.086Z,47.67
2022-08-17T10:01:18.178Z,46.57
2022-08-17T10:02:18.036Z,44.91
2022-08-17T10:03:18.053Z,48.72
2022-08-17T10:04:20.231Z,47.53
2022-08-17T10:05:18.016Z,46.08
2022-08-17T10:06:21.992Z,48.04
2022-08-17T10:07:17.996Z,47.57
2022-08-17T10:08:17.986Z,46.98
2022-08-17T10:09:17.958Z,47.01
2022-08-17T10:10:18.025Z,48.48
2022-08-17T10:11:17.965Z,46.05
2022-08-17T10:12:18.064Z,48.43
2022-08-17T10:13:18.396Z,48.06
2022-08-17T10:14:36.785Z,47.79
2022-08-17T10:15:18.884Z,48.08
2022-08-17T10:16:17.858Z,47.13
2022-08-17T10:17:17.861Z,47.25
2022-08-17T10:18:17.847Z,48.50
2022-08-17T10:19:17.823Z,47.89
2022-08-17T10:20:17.818Z,48.94
2022-08-17T10:21:17.799Z,48.13
2022-08-17T10:22:35.176Z,47.91
2022-08-17T10:23:18.787Z,48.38
2022-08-17T10:24:17.790Z,46.79
2022-08-17T10:25:23.617Z,45.10
2022-08-17T10:26:18.767Z,45.50
2022-08-17T10:27:17.727Z,45.28
2022-08-17T10:28:20.138Z,47.16
2022-08-17T10:29:17.697Z,45.18
2022-08-17T10:30:17.677Z,43.24
2022-08-17T10:31:34.142Z,43.15
2022-08-17T10:32:18.650Z,44.13
2022-08-17T10:33:17.659Z,44.23
2022-08-17T10:34:17.632Z,44.62
2022-08-17T10:35:17.621Z,45.86
2022-08-17T10:36:17.612Z,44.40
2022-08-17T10:37:17.601Z,45.55
2022-08-17T10:38:17.582Z,44.84
2022-08-17T10:39:17.664Z,44.55
2022-08-17T10:40:17.575Z,43.55
2022-08-17T10:41:17.578Z,42.69
2022-08-17T10:42:30.104Z,44.35
2022-08-17T10:43:18.510Z,44.55
2022-08-17T10:44:38.415Z,43.59
2022-08-17T10:45:18.540Z,44.30
2022-08-17T10:46:29.900Z,42.66
2022-08-17T10:47:18.470Z,43.85
2022-08-17T10:48:17.451Z,46.77
2022-08-17T10:49:17.472Z,44.23
2022-08-17T10:50:17.452Z,47.82
2022-08-17T10:51:17.414Z,42.83
2022-08-17T10:52:17.393Z,42.15
2022-08-17T10:53:19.934Z,44.87
2022-08-17T10:54:17.395Z,46.33
2022-08-17T10:55:17.365Z,43.08
2022-08-17T10:56:17.344Z,45.23
2022-08-17T10:57:17.338Z,44.43
2022-08-17T10:58:17.334Z,44.51
2022-08-17T10:59:17.331Z,43.36
2022-08-17T11:00:17.306Z,43.75
2022-08-17T11:01:17.353Z,42.87
2022-08-17T11:02:17.305Z,41.41
2022-08-17T11:03:17.266Z,44.53
2022-08-17T11:04:17.277Z,41.60
2022-08-17T11:05:17.245Z,42.68
2022-08-17T11:06:17.234Z,46.88
2022-08-17T11:07:17.215Z,43.65
2022-08-17T11:08:17.440Z,42.07
2022-08-17T11:09:17.206Z,41.87
2022-08-17T11:10:17.178Z,41.50
2022-08-17T11:11:17.165Z,43.77
2022-08-17T11:12:17.245Z,44.34
2022-08-17T11:13:17.144Z,40.14
2022-08-17T11:14:17.163Z,41.62
2022-08-17T11:15:17.117Z,43.46
2022-08-17T11:16:17.096Z,44.92
2022-08-17T11:17:17.097Z,46.19
2022-08-17T11:18:17.076Z,42.26
2022-08-17T11:19:17.080Z,42.55
2022-08-17T11:20:17.049Z,45.75
2022-08-17T11:21:17.060Z,40.09
2022-08-17T11:22:17.036Z,42.80
2022-08-17T11:23:17.018Z,41.25
2022-08-17T11:24:17.018Z,41.63
2022-08-17T11:25:17.018Z,43.98
2022-08-17T11:26:16.979Z,42.10
2022-08-17T11:27:16.986Z,38.98
2022-08-17T11:28:18.113Z,38.96
2022-08-17T11:29:16.978Z,42.08
2022-08-17T11:30:17.414Z,40.41
2022-08-17T11:31:17.001Z,43.43
2022-08-17T11:32:16.899Z,41.46
2022-08-17T11:33:16.909Z,40.06
2022-08-17T11:34:16.893Z,41.73
2022-08-17T11:35:16.881Z,42.22
2022-08-17T11:36:16.861Z,41.35
2022-08-17T11:37:16.881Z,40.00
2022-08-17T11:38:16.981Z,41.36
2022-08-17T11:39:16.850Z,42.12
2022-08-17T11:40:16.883Z,42.90
2022-08-17T11:41:16.820Z,41.81
2022-08-17T11:42:16.782Z,40.86
2022-08-17T11:43:16.782Z,38.89
2022-08-17T11:44:16.773Z,40.64
2022-08-17T11:45:19.519Z,41.32
2022-08-17T11:46:17.732Z,38.87
2022-08-17T11:47:16.734Z,39.16
2022-08-17T11:48:27.629Z,40.13
2022-08-17T11:49:17.726Z,41.79
2022-08-17T11:50:16.704Z,41.38
2022-08-17T11:51:16.694Z,41.38
2022-08-17T11:52:16.662Z,39.61
2022-08-17T11:53:16.661Z,38.24
2022-08-17T11:54:32.360Z,39.41
2022-08-17T11:55:34.524Z,40.39
2022-08-17T11:56:17.624Z,39.16
2022-08-17T11:57:16.604Z,41.22
2022-08-17T11:58:16.603Z,42.00
2022-08-17T11:59:16.644Z,39.57
2022-08-17T12:00:16.563Z,41.40
2022-08-17T12:01:16.687Z,41.30
2022-08-17T12:02:16.556Z,38.36
2022-08-17T12:03:16.612Z,41.28
2022-08-17T12:04:16.575Z,41.57
2022-08-17T12:05:16.515Z,41.46
2022-08-17T12:06:16.495Z,37.56
2022-08-17T12:07:16.486Z,36.38
2022-08-17T12:08:16.472Z,35.80
2022-08-17T12:09:16.474Z,35.31
2022-08-17T12:10:16.447Z,41.24
2022-08-17T12:11:16.436Z,39.20
2022-08-17T12:12:17.434Z,37.35
2022-08-17T12:13:16.405Z,39.20
2022-08-17T12:14:20.181Z,41.63
2022-08-17T12:15:17.387Z,40.56
2022-08-17T12:16:16.395Z,40.83
2022-08-17T12:17:34.697Z,40.27
2022-08-17T12:18:17.373Z,37.54
2022-08-17T12:19:16.346Z,35.91
2022-08-17T12:20:16.361Z,36.98
2022-08-17T12:21:16.319Z,39.72
2022-08-17T12:22:16.290Z,37.48
2022-08-17T12:23:16.287Z,37.50
2022-08-17T12:24:16.281Z,36.53
2022-08-17T12:25:16.249Z,37.04
2022-08-17T12:26:16.239Z,36.94
2022-08-17T12:27:16.241Z,37.81
2022-08-17T12:28:19.948Z,37.23
2022-08-17T12:29:18.111Z,37.99
2022-08-17T12:30:17.201Z,40.52
2022-08-17T12:31:16.191Z,36.33
2022-08-17T12:32:16.187Z,37.68
2022-08-17T12:33:25.226Z,38.36
2022-08-17T12:34:17.163Z,37.21
2022-08-17T12:35:16.130Z,40.41
2022-08-17T12:36:16.133Z,37.77
2022-08-17T12:37:16.123Z,36.20
2022-08-17T12:38:26.877Z,39.12
2022-08-17T12:39:21.432Z,37.93
2022-08-17T12:40:16.067Z,38.42
2022-08-17T12:41:16.061Z,36.00
2022-08-17T12:42:16.048Z,35.52
2022-08-17T12:43:16.039Z,38.17
2022-08-17T12:44:16.043Z,38.56
2022-08-17T12:45:16.012Z,36.12
2022-08-17T12:46:16.003Z,37.56
2022-08-17T12:47:21.552Z,36.96
2022-08-17T12:48:16.963Z,38.54
2022-08-17T12:49:15.992Z,38.64
2022-08-17T12:50:28.984Z,38.64
2022-08-17T12:51:16.944Z,36.67
2022-08-17T12:52:15.921Z,39.18